VJC886 VVTS-RCKH
Flight info
| Callsign | VJC886 |
|---|---|
| Flight time | 2h 39m |
| Altitude | 33000 |
| Route | PATMA5A PATMA W12 PCA G221 BUNTA A1 IKELA/N0466F330 DCT KAPLI G86 ANDRE DCT PARPA |
| Aircraft | A21N/M-SDE2E3FGHIRWXY/LB1 |
Departure
| Time | 2026-04-14 04:17 |
|---|---|
| Airport | Tan Son Nhat International Airport (VVTS) |
Arrival
| Time | 2026-04-14 06:56 |
|---|---|
| Airport | Kaohsiung International Airport (RCKH) |
| Time | Latitude | Longitude | Altitude | Speed | Heading |
|---|---|---|---|---|---|
| 2026-04-14 03:58 | 10.81384 | 106.65286 | 41 ft | 0 kts | 340° |
| 2026-04-14 04:08 | 10.81384 | 106.65285 | 43 ft | 1 kts | 340° |
| 2026-04-14 04:08 | 10.81398 | 106.65281 | 43 ft | 3 kts | 340° |
| 2026-04-14 04:09 | 10.81423 | 106.65273 | 43 ft | 5 kts | 356° |
| 2026-04-14 04:09 | 10.81451 | 106.65294 | 43 ft | 6 kts | 57° |
| 2026-04-14 04:09 | 10.81468 | 106.65335 | 43 ft | 7 kts | 69° |
| 2026-04-14 04:09 | 10.81487 | 106.65387 | 42 ft | 8 kts | 69° |
| 2026-04-14 04:10 | 10.81510 | 106.65446 | 42 ft | 10 kts | 68° |
| 2026-04-14 04:10 | 10.81536 | 106.65515 | 41 ft | 11 kts | 69° |
| 2026-04-14 04:10 | 10.81566 | 106.65594 | 40 ft | 12 kts | 69° |
| 2026-04-14 04:10 | 10.81594 | 106.65669 | 42 ft | 11 kts | 69° |
| 2026-04-14 04:11 | 10.81623 | 106.65745 | 42 ft | 12 kts | 69° |
| 2026-04-14 04:11 | 10.81652 | 106.65822 | 42 ft | 12 kts | 69° |
| 2026-04-14 04:11 | 10.81684 | 106.65907 | 42 ft | 14 kts | 69° |
| 2026-04-14 04:11 | 10.81715 | 106.65989 | 42 ft | 13 kts | 69° |
| 2026-04-14 04:12 | 10.81748 | 106.66077 | 43 ft | 14 kts | 69° |
| 2026-04-14 04:12 | 10.81782 | 106.66166 | 42 ft | 14 kts | 69° |
| 2026-04-14 04:12 | 10.81818 | 106.66262 | 42 ft | 15 kts | 69° |
| 2026-04-14 04:12 | 10.81856 | 106.66360 | 42 ft | 15 kts | 69° |
| 2026-04-14 04:13 | 10.81895 | 106.66463 | 40 ft | 16 kts | 69° |
| 2026-04-14 04:13 | 10.81937 | 106.66574 | 42 ft | 17 kts | 69° |
| 2026-04-14 04:13 | 10.81977 | 106.66682 | 42 ft | 16 kts | 69° |
| 2026-04-14 04:13 | 10.82020 | 106.66794 | 42 ft | 17 kts | 69° |
| 2026-04-14 04:14 | 10.82055 | 106.66875 | 42 ft | 10 kts | 57° |
| 2026-04-14 04:14 | 10.82105 | 106.66924 | 40 ft | 10 kts | 39° |
| 2026-04-14 04:14 | 10.82160 | 106.66970 | 40 ft | 10 kts | 39° |
| 2026-04-14 04:14 | 10.82220 | 106.67013 | 41 ft | 11 kts | 15° |
| 2026-04-14 04:15 | 10.82294 | 106.66994 | 40 ft | 11 kts | 334° |
| 2026-04-14 04:15 | 10.82352 | 106.66950 | 40 ft | 7 kts | 315° |
| 2026-04-14 04:15 | 10.82353 | 106.66905 | 40 ft | 5 kts | 250° |
| 2026-04-14 04:15 | 10.82352 | 106.66902 | 40 ft | 0 kts | 249° |
| 2026-04-14 04:16 | 10.82329 | 106.66842 | 38 ft | 33 kts | 249° |
| 2026-04-14 04:16 | 10.82158 | 106.66388 | 38 ft | 104 kts | 249° |
| 2026-04-14 04:16 | 10.81825 | 106.65508 | 42 ft | 160 kts | 249° |
| 2026-04-14 04:16 | 10.81540 | 106.64750 | 64 ft | 183 kts | 248° |
| 2026-04-14 04:17 | 10.80951 | 106.63158 | 822 ft | 179 kts | 246° |
| 2026-04-14 04:17 | 10.80650 | 106.62365 | 1194 ft | 181 kts | 248° |
| 2026-04-14 04:17 | 10.80198 | 106.61161 | 1717 ft | 186 kts | 248° |
| 2026-04-14 04:17 | 10.79720 | 106.59886 | 2068 ft | 201 kts | 248° |
| 2026-04-14 04:18 | 10.79201 | 106.58493 | 2521 ft | 217 kts | 248° |
| 2026-04-14 04:18 | 10.78650 | 106.57013 | 2931 ft | 238 kts | 248° |
| 2026-04-14 04:18 | 10.78096 | 106.55313 | 3289 ft | 262 kts | 260° |
| 2026-04-14 04:18 | 10.78188 | 106.53454 | 3806 ft | 274 kts | 287° |
| 2026-04-14 04:19 | 10.79108 | 106.51763 | 4514 ft | 277 kts | 314° |
| 2026-04-14 04:19 | 10.80679 | 106.50646 | 5210 ft | 277 kts | 341° |
| 2026-04-14 04:19 | 10.82575 | 106.50325 | 5914 ft | 277 kts | 3° |
| 2026-04-14 04:19 | 10.84487 | 106.50561 | 6616 ft | 279 kts | 11° |
| 2026-04-14 04:20 | 10.86413 | 106.50893 | 7288 ft | 282 kts | 11° |
| 2026-04-14 04:20 | 10.88343 | 106.51202 | 7935 ft | 286 kts | 10° |
| 2026-04-14 04:20 | 10.90331 | 106.51496 | 8624 ft | 290 kts | 9° |
| 2026-04-14 04:20 | 10.92347 | 106.51789 | 9300 ft | 293 kts | 11° |
| 2026-04-14 04:21 | 10.94289 | 106.52417 | 9909 ft | 294 kts | 30° |
| 2026-04-14 04:21 | 10.95887 | 106.53687 | 10313 ft | 302 kts | 49° |
| 2026-04-14 04:21 | 10.97221 | 106.55403 | 10567 ft | 317 kts | 54° |
| 2026-04-14 04:21 | 10.98560 | 106.57269 | 10872 ft | 329 kts | 54° |
| 2026-04-14 04:22 | 10.99923 | 106.59136 | 11393 ft | 334 kts | 54° |
| 2026-04-14 04:22 | 11.01343 | 106.61025 | 11963 ft | 337 kts | 53° |
| 2026-04-14 04:22 | 11.02786 | 106.62922 | 12545 ft | 340 kts | 53° |
| 2026-04-14 04:22 | 11.04247 | 106.64833 | 13117 ft | 343 kts | 53° |
| 2026-04-14 04:23 | 11.05731 | 106.66770 | 13696 ft | 347 kts | 53° |
| 2026-04-14 04:23 | 11.07203 | 106.68692 | 14209 ft | 350 kts | 53° |
| 2026-04-14 04:23 | 11.08714 | 106.70664 | 14731 ft | 353 kts | 53° |
| 2026-04-14 04:23 | 11.10234 | 106.72646 | 15255 ft | 355 kts | 53° |
| 2026-04-14 04:24 | 11.11759 | 106.74638 | 15775 ft | 358 kts | 53° |
| 2026-04-14 04:24 | 11.13298 | 106.76647 | 16279 ft | 361 kts | 53° |
| 2026-04-14 04:24 | 11.14828 | 106.78643 | 16778 ft | 364 kts | 53° |
| 2026-04-14 04:24 | 11.16396 | 106.80692 | 17281 ft | 367 kts | 53° |
| 2026-04-14 04:25 | 11.17973 | 106.82750 | 17779 ft | 370 kts | 52° |
| 2026-04-14 04:25 | 11.19561 | 106.84823 | 18266 ft | 372 kts | 53° |
| 2026-04-14 04:25 | 11.21161 | 106.86912 | 18691 ft | 375 kts | 53° |
| 2026-04-14 04:25 | 11.22773 | 106.89015 | 19130 ft | 378 kts | 53° |
| 2026-04-14 04:26 | 11.24399 | 106.91140 | 19588 ft | 380 kts | 53° |
| 2026-04-14 04:26 | 11.26009 | 106.93243 | 20015 ft | 382 kts | 53° |
| 2026-04-14 04:26 | 11.27650 | 106.95389 | 20433 ft | 385 kts | 53° |
| 2026-04-14 04:26 | 11.29301 | 106.97550 | 20849 ft | 387 kts | 53° |
| 2026-04-14 04:27 | 11.30972 | 106.99734 | 21266 ft | 390 kts | 53° |
| 2026-04-14 04:27 | 11.32625 | 107.01896 | 21672 ft | 392 kts | 53° |
| 2026-04-14 04:27 | 11.34311 | 107.04097 | 22059 ft | 395 kts | 53° |
| 2026-04-14 04:27 | 11.36136 | 107.06203 | 22440 ft | 398 kts | 43° |
| 2026-04-14 04:28 | 11.38300 | 107.07987 | 22833 ft | 401 kts | 38° |
| 2026-04-14 04:28 | 11.40552 | 107.09688 | 23219 ft | 404 kts | 37° |
| 2026-04-14 04:28 | 11.42824 | 107.11393 | 23580 ft | 406 kts | 38° |
| 2026-04-14 04:28 | 11.45102 | 107.13115 | 23907 ft | 408 kts | 38° |
| 2026-04-14 04:29 | 11.47385 | 107.14852 | 24230 ft | 410 kts | 38° |
| 2026-04-14 04:29 | 11.49678 | 107.16600 | 24557 ft | 412 kts | 38° |
| 2026-04-14 04:29 | 11.51952 | 107.18337 | 24867 ft | 414 kts | 38° |
| 2026-04-14 04:29 | 11.54261 | 107.20103 | 25186 ft | 415 kts | 38° |
| 2026-04-14 04:30 | 11.56584 | 107.21880 | 25525 ft | 417 kts | 38° |
| 2026-04-14 04:30 | 11.58911 | 107.23663 | 25837 ft | 419 kts | 38° |
| 2026-04-14 04:30 | 11.61248 | 107.25452 | 26152 ft | 421 kts | 38° |
| 2026-04-14 04:30 | 11.63571 | 107.27225 | 26450 ft | 422 kts | 38° |
| 2026-04-14 04:31 | 11.65926 | 107.29026 | 26754 ft | 425 kts | 38° |
| 2026-04-14 04:31 | 11.68300 | 107.30846 | 27051 ft | 426 kts | 38° |
| 2026-04-14 04:31 | 11.73064 | 107.34497 | 27649 ft | 429 kts | 38° |
| 2026-04-14 04:32 | 11.75462 | 107.36332 | 27925 ft | 431 kts | 38° |
| 2026-04-14 04:32 | 11.77867 | 107.38176 | 28203 ft | 433 kts | 38° |
| 2026-04-14 04:32 | 11.80277 | 107.40030 | 28481 ft | 434 kts | 38° |
| 2026-04-14 04:32 | 11.82664 | 107.41864 | 28751 ft | 436 kts | 38° |
| 2026-04-14 04:33 | 11.85095 | 107.43733 | 29041 ft | 437 kts | 38° |
| 2026-04-14 04:33 | 11.87543 | 107.45610 | 29286 ft | 438 kts | 38° |
| 2026-04-14 04:33 | 11.89994 | 107.47480 | 29531 ft | 441 kts | 38° |
| 2026-04-14 04:33 | 11.92453 | 107.49363 | 29771 ft | 442 kts | 37° |
| 2026-04-14 04:34 | 11.94887 | 107.51224 | 30013 ft | 443 kts | 38° |
| 2026-04-14 04:34 | 11.97361 | 107.53117 | 30236 ft | 444 kts | 38° |
| 2026-04-14 04:34 | 11.99840 | 107.55015 | 30442 ft | 445 kts | 37° |
| 2026-04-14 04:34 | 12.02327 | 107.56923 | 30610 ft | 448 kts | 38° |
| 2026-04-14 04:35 | 12.04829 | 107.58846 | 30782 ft | 450 kts | 37° |
| 2026-04-14 04:35 | 12.07337 | 107.60771 | 30955 ft | 451 kts | 37° |
| 2026-04-14 04:35 | 12.09844 | 107.62715 | 31153 ft | 453 kts | 38° |
| 2026-04-14 04:35 | 12.12326 | 107.64636 | 31324 ft | 454 kts | 37° |
| 2026-04-14 04:36 | 12.14856 | 107.66584 | 31525 ft | 455 kts | 37° |
| 2026-04-14 04:36 | 12.17392 | 107.68542 | 31744 ft | 455 kts | 37° |
| 2026-04-14 04:36 | 12.19929 | 107.70498 | 31965 ft | 455 kts | 37° |
| 2026-04-14 04:36 | 12.22461 | 107.72447 | 32187 ft | 455 kts | 37° |
| 2026-04-14 04:37 | 12.24971 | 107.74365 | 32391 ft | 455 kts | 37° |
| 2026-04-14 04:37 | 12.27509 | 107.76306 | 32591 ft | 455 kts | 37° |
| 2026-04-14 04:37 | 12.30039 | 107.78258 | 32790 ft | 455 kts | 37° |
| 2026-04-14 04:37 | 12.32570 | 107.80213 | 32949 ft | 456 kts | 37° |
| 2026-04-14 04:38 | 12.37360 | 107.84539 | 32961 ft | 463 kts | 43° |
| 2026-04-14 04:38 | 12.42085 | 107.89043 | 32932 ft | 467 kts | 43° |
| 2026-04-14 04:39 | 12.46871 | 107.93543 | 32914 ft | 467 kts | 43° |
| 2026-04-14 04:39 | 12.51655 | 107.98061 | 32911 ft | 467 kts | 43° |
| 2026-04-14 04:40 | 12.56424 | 108.02583 | 32909 ft | 467 kts | 43° |
| 2026-04-14 04:41 | 12.63548 | 108.09355 | 32910 ft | 467 kts | 43° |
| 2026-04-14 04:41 | 12.68517 | 108.13634 | 32905 ft | 467 kts | 35° |
| 2026-04-14 04:42 | 12.73875 | 108.17425 | 32905 ft | 467 kts | 35° |
| 2026-04-14 04:42 | 12.79223 | 108.21206 | 32905 ft | 467 kts | 35° |
| 2026-04-14 04:43 | 12.84536 | 108.24974 | 32905 ft | 466 kts | 35° |
| 2026-04-14 04:43 | 12.89865 | 108.28757 | 32906 ft | 466 kts | 35° |
| 2026-04-14 04:44 | 12.95211 | 108.32556 | 32905 ft | 466 kts | 35° |
| 2026-04-14 04:44 | 13.00549 | 108.36352 | 32906 ft | 466 kts | 35° |
| 2026-04-14 04:45 | 13.05854 | 108.40121 | 32902 ft | 466 kts | 35° |
| 2026-04-14 04:45 | 13.11197 | 108.43922 | 32901 ft | 466 kts | 35° |
| 2026-04-14 04:46 | 13.16524 | 108.47729 | 32897 ft | 466 kts | 35° |
| 2026-04-14 04:46 | 13.21832 | 108.51520 | 32894 ft | 466 kts | 35° |
| 2026-04-14 04:47 | 13.27161 | 108.55335 | 32892 ft | 466 kts | 35° |
| 2026-04-14 04:47 | 13.32495 | 108.59128 | 32891 ft | 466 kts | 35° |
| 2026-04-14 04:48 | 13.37784 | 108.62913 | 32890 ft | 466 kts | 35° |
| 2026-04-14 04:48 | 13.43117 | 108.66718 | 32891 ft | 466 kts | 34° |
| 2026-04-14 04:49 | 13.48474 | 108.70493 | 32893 ft | 466 kts | 34° |
| 2026-04-14 04:49 | 13.53780 | 108.74266 | 32894 ft | 466 kts | 35° |
| 2026-04-14 04:50 | 13.59108 | 108.78067 | 32893 ft | 466 kts | 35° |
| 2026-04-14 04:50 | 13.64443 | 108.81880 | 32894 ft | 466 kts | 35° |
| 2026-04-14 04:51 | 13.69772 | 108.85687 | 32899 ft | 466 kts | 35° |
| 2026-04-14 04:51 | 13.75076 | 108.89479 | 32898 ft | 466 kts | 35° |
| 2026-04-14 04:52 | 13.80414 | 108.93302 | 32896 ft | 466 kts | 35° |
| 2026-04-14 04:52 | 13.85708 | 108.97088 | 32898 ft | 466 kts | 35° |
| 2026-04-14 04:53 | 13.91034 | 109.00898 | 32899 ft | 465 kts | 35° |
| 2026-04-14 04:53 | 13.96650 | 109.04094 | 32886 ft | 466 kts | 18° |
| 2026-04-14 04:54 | 14.03039 | 109.05231 | 32902 ft | 466 kts | 6° |
| 2026-04-14 04:54 | 14.09492 | 109.05954 | 32897 ft | 466 kts | 6° |
| 2026-04-14 04:55 | 14.15914 | 109.06703 | 32895 ft | 467 kts | 6° |
| 2026-04-14 04:55 | 14.22435 | 109.07498 | 32897 ft | 473 kts | 6° |
| 2026-04-14 04:56 | 14.28994 | 109.08296 | 32893 ft | 474 kts | 6° |
| 2026-04-14 04:56 | 14.35519 | 109.09091 | 32895 ft | 474 kts | 6° |
| 2026-04-14 04:57 | 14.42077 | 109.09889 | 32887 ft | 474 kts | 6° |
| 2026-04-14 04:57 | 14.48643 | 109.10685 | 32887 ft | 475 kts | 6° |
| 2026-04-14 04:58 | 14.55209 | 109.11488 | 32895 ft | 475 kts | 6° |
| 2026-04-14 04:58 | 14.61773 | 109.12290 | 32896 ft | 475 kts | 6° |
| 2026-04-14 04:59 | 14.68301 | 109.13086 | 32897 ft | 475 kts | 6° |
| 2026-04-14 04:59 | 14.74874 | 109.13889 | 32892 ft | 475 kts | 6° |
| 2026-04-14 05:00 | 14.81450 | 109.14689 | 32892 ft | 475 kts | 6° |
| 2026-04-14 05:00 | 14.88011 | 109.15489 | 32893 ft | 475 kts | 6° |
| 2026-04-14 05:01 | 14.94583 | 109.16298 | 32889 ft | 475 kts | 6° |
| 2026-04-14 05:01 | 15.01120 | 109.17095 | 32892 ft | 475 kts | 6° |
| 2026-04-14 05:02 | 15.07693 | 109.17898 | 32892 ft | 475 kts | 6° |
| 2026-04-14 05:02 | 15.14264 | 109.18705 | 32890 ft | 475 kts | 6° |
| 2026-04-14 05:03 | 15.20840 | 109.19507 | 32893 ft | 475 kts | 6° |
| 2026-04-14 05:03 | 15.27431 | 109.20316 | 32893 ft | 476 kts | 6° |
| 2026-04-14 05:04 | 15.33959 | 109.21117 | 32891 ft | 475 kts | 6° |
| 2026-04-14 05:04 | 15.39436 | 109.21789 | 32895 ft | 475 kts | 6° |
| 2026-04-14 05:05 | 15.46009 | 109.22596 | 32898 ft | 475 kts | 6° |
| 2026-04-14 05:05 | 15.53686 | 109.23541 | 32894 ft | 475 kts | 6° |
| 2026-04-14 05:06 | 15.59143 | 109.24213 | 32894 ft | 475 kts | 6° |
| 2026-04-14 05:06 | 15.65674 | 109.25017 | 32893 ft | 475 kts | 6° |
| 2026-04-14 05:07 | 15.72247 | 109.25820 | 32895 ft | 475 kts | 6° |
| 2026-04-14 05:07 | 15.78834 | 109.26625 | 32894 ft | 474 kts | 6° |
| 2026-04-14 05:08 | 15.85359 | 109.27422 | 32893 ft | 474 kts | 6° |
| 2026-04-14 05:08 | 15.91927 | 109.28226 | 32894 ft | 474 kts | 6° |
| 2026-04-14 05:09 | 15.98477 | 109.29031 | 32891 ft | 474 kts | 6° |
| 2026-04-14 05:09 | 16.05007 | 109.29834 | 32891 ft | 474 kts | 6° |
| 2026-04-14 05:10 | 16.11562 | 109.30638 | 32896 ft | 474 kts | 6° |
| 2026-04-14 05:10 | 16.18113 | 109.31447 | 32896 ft | 474 kts | 6° |
| 2026-04-14 05:11 | 16.24672 | 109.32251 | 32892 ft | 473 kts | 6° |
| 2026-04-14 05:11 | 16.31179 | 109.33052 | 32893 ft | 474 kts | 6° |
| 2026-04-14 05:12 | 16.37736 | 109.33857 | 32890 ft | 474 kts | 6° |
| 2026-04-14 05:12 | 16.44300 | 109.34668 | 32895 ft | 474 kts | 6° |
| 2026-04-14 05:13 | 16.50818 | 109.35475 | 32892 ft | 474 kts | 6° |
| 2026-04-14 05:13 | 16.57386 | 109.36285 | 32893 ft | 474 kts | 6° |
| 2026-04-14 05:14 | 16.63943 | 109.37095 | 32892 ft | 474 kts | 6° |
| 2026-04-14 05:14 | 16.70470 | 109.37902 | 32889 ft | 475 kts | 6° |
| 2026-04-14 05:15 | 16.77034 | 109.38753 | 32885 ft | 476 kts | 9° |
| 2026-04-14 05:15 | 16.80227 | 109.39662 | 32881 ft | 477 kts | 20° |
| 2026-04-14 05:15 | 16.83186 | 109.41258 | 32885 ft | 479 kts | 33° |
| 2026-04-14 05:15 | 16.85735 | 109.43481 | 32890 ft | 480 kts | 46° |
| 2026-04-14 05:16 | 16.87803 | 109.46213 | 32896 ft | 480 kts | 56° |
| 2026-04-14 05:16 | 16.91491 | 109.52046 | 32892 ft | 480 kts | 57° |
| 2026-04-14 05:17 | 16.95201 | 109.57844 | 32895 ft | 481 kts | 56° |
| 2026-04-14 05:17 | 16.98923 | 109.63609 | 32894 ft | 481 kts | 56° |
| 2026-04-14 05:18 | 17.02663 | 109.69398 | 32895 ft | 481 kts | 56° |
| 2026-04-14 05:18 | 17.06411 | 109.75206 | 32894 ft | 481 kts | 56° |
| 2026-04-14 05:19 | 17.10153 | 109.81017 | 32897 ft | 481 kts | 56° |
| 2026-04-14 05:19 | 17.13864 | 109.86781 | 32898 ft | 481 kts | 56° |
| 2026-04-14 05:20 | 17.17595 | 109.92581 | 32902 ft | 481 kts | 56° |
| 2026-04-14 05:20 | 17.21332 | 109.98399 | 32902 ft | 481 kts | 56° |
| 2026-04-14 05:21 | 17.25064 | 110.04208 | 32905 ft | 481 kts | 56° |
| 2026-04-14 05:21 | 17.28766 | 110.09979 | 32904 ft | 481 kts | 56° |
| 2026-04-14 05:22 | 17.32493 | 110.15793 | 32903 ft | 481 kts | 56° |
| 2026-04-14 05:22 | 17.36223 | 110.21618 | 32903 ft | 481 kts | 56° |
| 2026-04-14 05:23 | 17.39952 | 110.27445 | 32907 ft | 481 kts | 56° |
| 2026-04-14 05:23 | 17.43662 | 110.33222 | 32904 ft | 481 kts | 56° |
| 2026-04-14 05:24 | 17.47430 | 110.39005 | 32907 ft | 481 kts | 56° |
| 2026-04-14 05:24 | 17.51192 | 110.44800 | 32906 ft | 481 kts | 56° |
| 2026-04-14 05:25 | 17.54938 | 110.50620 | 32907 ft | 481 kts | 56° |
| 2026-04-14 05:25 | 17.58685 | 110.56426 | 32909 ft | 481 kts | 56° |
| 2026-04-14 05:26 | 17.62445 | 110.62230 | 32908 ft | 481 kts | 56° |
| 2026-04-14 05:26 | 17.66180 | 110.68010 | 32909 ft | 481 kts | 56° |
| 2026-04-14 05:27 | 17.69966 | 110.73828 | 32910 ft | 481 kts | 56° |
| 2026-04-14 05:27 | 17.73711 | 110.79664 | 32909 ft | 481 kts | 56° |
| 2026-04-14 05:28 | 17.77435 | 110.85449 | 32903 ft | 481 kts | 56° |
| 2026-04-14 05:28 | 17.81182 | 110.91274 | 32903 ft | 482 kts | 56° |
| 2026-04-14 05:29 | 17.84932 | 110.97103 | 32907 ft | 482 kts | 56° |
| 2026-04-14 05:29 | 17.88711 | 111.02917 | 32907 ft | 482 kts | 56° |
| 2026-04-14 05:30 | 17.92469 | 111.08740 | 32903 ft | 482 kts | 56° |
| 2026-04-14 05:30 | 17.96218 | 111.14580 | 32905 ft | 482 kts | 56° |
| 2026-04-14 05:31 | 17.99962 | 111.20416 | 32906 ft | 482 kts | 56° |
| 2026-04-14 05:31 | 18.03685 | 111.26225 | 32905 ft | 482 kts | 56° |
| 2026-04-14 05:32 | 18.07426 | 111.32067 | 32905 ft | 482 kts | 56° |
| 2026-04-14 05:32 | 18.11170 | 111.37926 | 32905 ft | 482 kts | 56° |
| 2026-04-14 05:33 | 18.14910 | 111.43778 | 32907 ft | 483 kts | 56° |
| 2026-04-14 05:33 | 18.18652 | 111.49642 | 32904 ft | 483 kts | 56° |
| 2026-04-14 05:34 | 18.24232 | 111.58401 | 32905 ft | 483 kts | 56° |
| 2026-04-14 05:34 | 18.27965 | 111.64270 | 32903 ft | 483 kts | 56° |
| 2026-04-14 05:35 | 18.31704 | 111.70149 | 32903 ft | 483 kts | 56° |
| 2026-04-14 05:35 | 18.35444 | 111.76021 | 32912 ft | 483 kts | 56° |
| 2026-04-14 05:36 | 18.39187 | 111.81909 | 32906 ft | 484 kts | 56° |
| 2026-04-14 05:36 | 18.42904 | 111.87753 | 32909 ft | 484 kts | 56° |
| 2026-04-14 05:37 | 18.46649 | 111.93646 | 32906 ft | 484 kts | 56° |
| 2026-04-14 05:37 | 18.50383 | 111.99539 | 32911 ft | 484 kts | 56° |
| 2026-04-14 05:38 | 18.54123 | 112.05440 | 32910 ft | 484 kts | 56° |
| 2026-04-14 05:38 | 18.57857 | 112.11341 | 32915 ft | 484 kts | 56° |
| 2026-04-14 05:39 | 18.61596 | 112.17261 | 32912 ft | 485 kts | 56° |
| 2026-04-14 05:39 | 18.65328 | 112.23175 | 32911 ft | 485 kts | 56° |
| 2026-04-14 05:40 | 18.68626 | 112.29326 | 32912 ft | 485 kts | 63° |
| 2026-04-14 05:40 | 18.71727 | 112.35644 | 32910 ft | 485 kts | 62° |
| 2026-04-14 05:41 | 18.74860 | 112.41960 | 32918 ft | 486 kts | 62° |
| 2026-04-14 05:41 | 18.77997 | 112.48267 | 32909 ft | 486 kts | 62° |
| 2026-04-14 05:42 | 18.81132 | 112.54583 | 32912 ft | 486 kts | 62° |
| 2026-04-14 05:42 | 18.84250 | 112.60868 | 32905 ft | 486 kts | 62° |
| 2026-04-14 05:43 | 18.87382 | 112.67190 | 32913 ft | 487 kts | 62° |
| 2026-04-14 05:43 | 18.90517 | 112.73526 | 32915 ft | 487 kts | 62° |
| 2026-04-14 05:44 | 18.93652 | 112.79864 | 32912 ft | 487 kts | 62° |
| 2026-04-14 05:44 | 18.96784 | 112.86201 | 32911 ft | 487 kts | 62° |
| 2026-04-14 05:45 | 18.99907 | 112.92544 | 32910 ft | 487 kts | 62° |
| 2026-04-14 05:45 | 19.03015 | 112.98858 | 32913 ft | 487 kts | 62° |
| 2026-04-14 05:46 | 19.06144 | 113.05206 | 32916 ft | 487 kts | 62° |
| 2026-04-14 05:46 | 19.09276 | 113.11566 | 32914 ft | 488 kts | 62° |
| 2026-04-14 05:47 | 19.12402 | 113.17930 | 32914 ft | 488 kts | 62° |
| 2026-04-14 05:47 | 19.15528 | 113.24300 | 32915 ft | 488 kts | 62° |
| 2026-04-14 05:48 | 19.18634 | 113.30631 | 32918 ft | 488 kts | 62° |
| 2026-04-14 05:48 | 19.21758 | 113.37018 | 32915 ft | 488 kts | 62° |
| 2026-04-14 05:49 | 19.24878 | 113.43395 | 32922 ft | 489 kts | 62° |
| 2026-04-14 05:49 | 19.28003 | 113.49787 | 32913 ft | 489 kts | 62° |
| 2026-04-14 05:50 | 19.31119 | 113.56178 | 32914 ft | 489 kts | 62° |
| 2026-04-14 05:50 | 19.34221 | 113.62538 | 32921 ft | 489 kts | 62° |
| 2026-04-14 05:51 | 19.37340 | 113.68937 | 32917 ft | 489 kts | 62° |
| 2026-04-14 05:51 | 19.40455 | 113.75346 | 32918 ft | 489 kts | 62° |
| 2026-04-14 05:52 | 19.43573 | 113.81768 | 32915 ft | 490 kts | 62° |
| 2026-04-14 05:52 | 19.46688 | 113.88179 | 32909 ft | 490 kts | 62° |
| 2026-04-14 05:53 | 19.49785 | 113.94561 | 32922 ft | 490 kts | 62° |
| 2026-04-14 05:53 | 19.52896 | 114.00986 | 32908 ft | 490 kts | 62° |
| 2026-04-14 05:54 | 19.56006 | 114.07423 | 32924 ft | 490 kts | 62° |
| 2026-04-14 05:54 | 19.59117 | 114.13853 | 32923 ft | 490 kts | 62° |
| 2026-04-14 05:55 | 19.62205 | 114.20253 | 32929 ft | 491 kts | 62° |
| 2026-04-14 05:55 | 19.65312 | 114.26694 | 32924 ft | 491 kts | 62° |
| 2026-04-14 05:56 | 19.68422 | 114.33148 | 32923 ft | 491 kts | 63° |
| 2026-04-14 05:56 | 19.71525 | 114.39603 | 32933 ft | 491 kts | 63° |
| 2026-04-14 05:57 | 19.74624 | 114.46071 | 32921 ft | 491 kts | 63° |
| 2026-04-14 05:57 | 19.77704 | 114.52487 | 32922 ft | 491 kts | 63° |
| 2026-04-14 05:58 | 19.80806 | 114.58960 | 32925 ft | 492 kts | 63° |
| 2026-04-14 05:58 | 19.83910 | 114.65435 | 32918 ft | 492 kts | 62° |
| 2026-04-14 05:59 | 19.87012 | 114.71901 | 32921 ft | 491 kts | 63° |
| 2026-04-14 05:59 | 19.90088 | 114.78335 | 32922 ft | 491 kts | 63° |
| 2026-04-14 06:00 | 19.93172 | 114.84811 | 32930 ft | 492 kts | 63° |
| 2026-04-14 06:00 | 19.96254 | 114.91302 | 32927 ft | 492 kts | 63° |
| 2026-04-14 06:01 | 19.99343 | 114.97784 | 32927 ft | 492 kts | 63° |
| 2026-04-14 06:01 | 20.02437 | 115.04278 | 32921 ft | 492 kts | 63° |
| 2026-04-14 06:02 | 20.05506 | 115.10726 | 32927 ft | 492 kts | 63° |
| 2026-04-14 06:02 | 20.08595 | 115.17228 | 32928 ft | 492 kts | 63° |
| 2026-04-14 06:03 | 20.11682 | 115.23736 | 32938 ft | 492 kts | 63° |
| 2026-04-14 06:04 | 20.16297 | 115.33496 | 32933 ft | 492 kts | 63° |
| 2026-04-14 06:04 | 20.19355 | 115.39963 | 32932 ft | 493 kts | 63° |
| 2026-04-14 06:05 | 20.22435 | 115.46488 | 32927 ft | 493 kts | 63° |
| 2026-04-14 06:05 | 20.25509 | 115.53006 | 32933 ft | 493 kts | 63° |
| 2026-04-14 06:06 | 20.28584 | 115.59536 | 32931 ft | 493 kts | 63° |
| 2026-04-14 06:06 | 20.31653 | 115.66060 | 32929 ft | 493 kts | 63° |
| 2026-04-14 06:07 | 20.34705 | 115.72555 | 32932 ft | 493 kts | 63° |
| 2026-04-14 06:07 | 20.37772 | 115.79090 | 32936 ft | 493 kts | 63° |
| 2026-04-14 06:08 | 20.40839 | 115.85638 | 32932 ft | 493 kts | 63° |
| 2026-04-14 06:08 | 20.43899 | 115.92181 | 32929 ft | 493 kts | 63° |
| 2026-04-14 06:09 | 20.46943 | 115.98691 | 32938 ft | 494 kts | 63° |
| 2026-04-14 06:09 | 20.50003 | 116.05241 | 32929 ft | 494 kts | 63° |
| 2026-04-14 06:10 | 20.53061 | 116.11805 | 32931 ft | 494 kts | 63° |
| 2026-04-14 06:10 | 20.56107 | 116.18366 | 32933 ft | 494 kts | 63° |
| 2026-04-14 06:11 | 20.59168 | 116.24931 | 32931 ft | 494 kts | 63° |
| 2026-04-14 06:11 | 20.62197 | 116.31453 | 32936 ft | 494 kts | 63° |
| 2026-04-14 06:12 | 20.65253 | 116.38028 | 32940 ft | 494 kts | 63° |
| 2026-04-14 06:12 | 20.68296 | 116.44599 | 32939 ft | 494 kts | 63° |
| 2026-04-14 06:13 | 20.71340 | 116.51173 | 32934 ft | 494 kts | 63° |
| 2026-04-14 06:13 | 20.74368 | 116.57716 | 32934 ft | 494 kts | 63° |
| 2026-04-14 06:14 | 20.77408 | 116.64295 | 32932 ft | 494 kts | 63° |
| 2026-04-14 06:14 | 20.80455 | 116.70895 | 32934 ft | 494 kts | 63° |
| 2026-04-14 06:15 | 20.83488 | 116.77498 | 32935 ft | 494 kts | 63° |
| 2026-04-14 06:15 | 20.86519 | 116.84093 | 32935 ft | 494 kts | 63° |
| 2026-04-14 06:16 | 20.89546 | 116.90649 | 32934 ft | 494 kts | 63° |
| 2026-04-14 06:16 | 20.92575 | 116.97259 | 32941 ft | 494 kts | 63° |
| 2026-04-14 06:17 | 20.95584 | 117.03831 | 32944 ft | 494 kts | 63° |
| 2026-04-14 06:17 | 20.98608 | 117.10430 | 32943 ft | 494 kts | 63° |
| 2026-04-14 06:18 | 21.01631 | 117.17041 | 32937 ft | 494 kts | 63° |
| 2026-04-14 06:18 | 21.04659 | 117.23660 | 32940 ft | 494 kts | 63° |
| 2026-04-14 06:19 | 21.07673 | 117.30278 | 32947 ft | 494 kts | 63° |
| 2026-04-14 06:19 | 21.10677 | 117.36861 | 32938 ft | 494 kts | 63° |
| 2026-04-14 06:20 | 21.13182 | 117.42365 | 32939 ft | 495 kts | 64° |
| 2026-04-14 06:20 | 21.16172 | 117.49014 | 32941 ft | 495 kts | 66° |
| 2026-04-14 06:21 | 21.18137 | 117.56083 | 32940 ft | 495 kts | 76° |
| 2026-04-14 06:21 | 21.20083 | 117.64383 | 32936 ft | 487 kts | 76° |
| 2026-04-14 06:22 | 21.21467 | 117.70207 | 32940 ft | 483 kts | 76° |
| 2026-04-14 06:22 | 21.23129 | 117.77196 | 32949 ft | 483 kts | 76° |
| 2026-04-14 06:23 | 21.24782 | 117.84177 | 32944 ft | 483 kts | 76° |
| 2026-04-14 06:23 | 21.26431 | 117.91159 | 32940 ft | 483 kts | 76° |
| 2026-04-14 06:24 | 21.28079 | 117.98151 | 32941 ft | 482 kts | 76° |
| 2026-04-14 06:24 | 21.29712 | 118.05081 | 32945 ft | 481 kts | 76° |
| 2026-04-14 06:25 | 21.31343 | 118.12019 | 32943 ft | 480 kts | 76° |
| 2026-04-14 06:25 | 21.32964 | 118.18963 | 32941 ft | 479 kts | 76° |
| 2026-04-14 06:26 | 21.34563 | 118.25903 | 32941 ft | 478 kts | 76° |
| 2026-04-14 06:26 | 21.36170 | 118.32764 | 32951 ft | 477 kts | 76° |
| 2026-04-14 06:27 | 21.37782 | 118.39663 | 32945 ft | 477 kts | 76° |
| 2026-04-14 06:27 | 21.39390 | 118.46573 | 32942 ft | 477 kts | 76° |
| 2026-04-14 06:28 | 21.40996 | 118.53499 | 32945 ft | 477 kts | 76° |
| 2026-04-14 06:28 | 21.42601 | 118.60391 | 32944 ft | 476 kts | 76° |
| 2026-04-14 06:29 | 21.44183 | 118.67254 | 32942 ft | 476 kts | 76° |
| 2026-04-14 06:29 | 21.45772 | 118.74158 | 32938 ft | 476 kts | 76° |
| 2026-04-14 06:30 | 21.47368 | 118.81066 | 32942 ft | 476 kts | 76° |
| 2026-04-14 06:30 | 21.48958 | 118.87966 | 32939 ft | 476 kts | 76° |
| 2026-04-14 06:30 | 21.49742 | 118.91407 | 32707 ft | 472 kts | 76° |
| 2026-04-14 06:31 | 21.50523 | 118.94835 | 32422 ft | 472 kts | 76° |
| 2026-04-14 06:31 | 21.51308 | 118.98254 | 32174 ft | 470 kts | 76° |
| 2026-04-14 06:31 | 21.52084 | 119.01665 | 31931 ft | 469 kts | 76° |
| 2026-04-14 06:31 | 21.52862 | 119.05055 | 31692 ft | 467 kts | 76° |
| 2026-04-14 06:32 | 21.53635 | 119.08443 | 31456 ft | 466 kts | 76° |
| 2026-04-14 06:32 | 21.54402 | 119.11813 | 31220 ft | 464 kts | 76° |
| 2026-04-14 06:32 | 21.55185 | 119.15183 | 30983 ft | 463 kts | 76° |
| 2026-04-14 06:32 | 21.55944 | 119.18491 | 30754 ft | 461 kts | 76° |
| 2026-04-14 06:33 | 21.56705 | 119.21836 | 30524 ft | 460 kts | 76° |
| 2026-04-14 06:33 | 21.57464 | 119.25170 | 30296 ft | 458 kts | 76° |
| 2026-04-14 06:33 | 21.58219 | 119.28494 | 30069 ft | 457 kts | 76° |
| 2026-04-14 06:34 | 21.59715 | 119.35103 | 29542 ft | 453 kts | 76° |
| 2026-04-14 06:34 | 21.60462 | 119.38399 | 29277 ft | 452 kts | 76° |
| 2026-04-14 06:34 | 21.61203 | 119.41667 | 29013 ft | 450 kts | 76° |
| 2026-04-14 06:34 | 21.61939 | 119.44930 | 28762 ft | 448 kts | 76° |
| 2026-04-14 06:35 | 21.62675 | 119.48176 | 28379 ft | 445 kts | 76° |
| 2026-04-14 06:35 | 21.63390 | 119.51352 | 27890 ft | 441 kts | 76° |
| 2026-04-14 06:35 | 21.64108 | 119.54559 | 27355 ft | 439 kts | 76° |
| 2026-04-14 06:35 | 21.64829 | 119.57743 | 26797 ft | 437 kts | 76° |
| 2026-04-14 06:36 | 21.65543 | 119.60918 | 26245 ft | 436 kts | 76° |
| 2026-04-14 06:36 | 21.66253 | 119.64085 | 25713 ft | 435 kts | 76° |
| 2026-04-14 06:36 | 21.66962 | 119.67232 | 25187 ft | 433 kts | 76° |
| 2026-04-14 06:36 | 21.67665 | 119.70374 | 24663 ft | 431 kts | 76° |
| 2026-04-14 06:37 | 21.68366 | 119.73504 | 24123 ft | 429 kts | 76° |
| 2026-04-14 06:37 | 21.69054 | 119.76570 | 23604 ft | 426 kts | 76° |
| 2026-04-14 06:37 | 21.69740 | 119.79653 | 23007 ft | 423 kts | 76° |
| 2026-04-14 06:37 | 21.70424 | 119.82723 | 22435 ft | 419 kts | 76° |
| 2026-04-14 06:38 | 21.71102 | 119.85751 | 21884 ft | 415 kts | 76° |
| 2026-04-14 06:38 | 21.71771 | 119.88757 | 21344 ft | 411 kts | 76° |
| 2026-04-14 06:38 | 21.72428 | 119.91736 | 20820 ft | 407 kts | 76° |
| 2026-04-14 06:38 | 21.73213 | 119.94658 | 20308 ft | 402 kts | 66° |
| 2026-04-14 06:39 | 21.74623 | 119.97172 | 19834 ft | 394 kts | 47° |
| 2026-04-14 06:39 | 21.76663 | 119.99065 | 19376 ft | 384 kts | 28° |
| 2026-04-14 06:39 | 21.79097 | 120.00131 | 18928 ft | 374 kts | 9° |
| 2026-04-14 06:39 | 21.81651 | 120.00543 | 18509 ft | 367 kts | 4° |
| 2026-04-14 06:40 | 21.84183 | 120.00853 | 18063 ft | 363 kts | 4° |
| 2026-04-14 06:40 | 21.86643 | 120.01177 | 17596 ft | 359 kts | 5° |
| 2026-04-14 06:40 | 21.89112 | 120.01526 | 17141 ft | 357 kts | 5° |
| 2026-04-14 06:40 | 21.91571 | 120.01887 | 16711 ft | 357 kts | 5° |
| 2026-04-14 06:41 | 21.94037 | 120.02255 | 16293 ft | 356 kts | 5° |
| 2026-04-14 06:41 | 21.96492 | 120.02624 | 15892 ft | 356 kts | 5° |
| 2026-04-14 06:41 | 21.98946 | 120.02997 | 15492 ft | 356 kts | 5° |
| 2026-04-14 06:41 | 22.01388 | 120.03450 | 15086 ft | 357 kts | 13° |
| 2026-04-14 06:42 | 22.03646 | 120.04583 | 14675 ft | 361 kts | 34° |
| 2026-04-14 06:42 | 22.05426 | 120.06500 | 14270 ft | 364 kts | 52° |
| 2026-04-14 06:42 | 22.06884 | 120.08739 | 13862 ft | 365 kts | 54° |
| 2026-04-14 06:42 | 22.08286 | 120.10963 | 13418 ft | 360 kts | 54° |
| 2026-04-14 06:43 | 22.09705 | 120.13157 | 12971 ft | 354 kts | 53° |
| 2026-04-14 06:43 | 22.11134 | 120.15299 | 12588 ft | 347 kts | 53° |
| 2026-04-14 06:43 | 22.12544 | 120.17378 | 12196 ft | 341 kts | 52° |
| 2026-04-14 06:43 | 22.13940 | 120.19427 | 11788 ft | 335 kts | 53° |
| 2026-04-14 06:44 | 22.15307 | 120.21443 | 11398 ft | 330 kts | 53° |
| 2026-04-14 06:44 | 22.16651 | 120.23422 | 11013 ft | 331 kts | 53° |
| 2026-04-14 06:44 | 22.18008 | 120.25424 | 10669 ft | 327 kts | 53° |
| 2026-04-14 06:44 | 22.19340 | 120.27388 | 10387 ft | 319 kts | 53° |
| 2026-04-14 06:45 | 22.20630 | 120.29297 | 10112 ft | 312 kts | 53° |
| 2026-04-14 06:45 | 22.21994 | 120.31093 | 9811 ft | 307 kts | 41° |
| 2026-04-14 06:45 | 22.23808 | 120.32249 | 9443 ft | 302 kts | 16° |
| 2026-04-14 06:45 | 22.25817 | 120.32768 | 9088 ft | 300 kts | 9° |
| 2026-04-14 06:46 | 22.29821 | 120.33597 | 8546 ft | 284 kts | 9° |
| 2026-04-14 06:46 | 22.31732 | 120.34013 | 8248 ft | 277 kts | 9° |
| 2026-04-14 06:46 | 22.33598 | 120.34430 | 7973 ft | 271 kts | 10° |
| 2026-04-14 06:47 | 22.35420 | 120.34840 | 7680 ft | 264 kts | 10° |
| 2026-04-14 06:47 | 22.37201 | 120.35247 | 7382 ft | 257 kts | 11° |
| 2026-04-14 06:47 | 22.38820 | 120.35932 | 7083 ft | 252 kts | 33° |
| 2026-04-14 06:47 | 22.40000 | 120.37289 | 6806 ft | 247 kts | 59° |
| 2026-04-14 06:48 | 22.40759 | 120.38938 | 6482 ft | 243 kts | 65° |
| 2026-04-14 06:48 | 22.41445 | 120.40588 | 6174 ft | 237 kts | 64° |
| 2026-04-14 06:48 | 22.42111 | 120.42150 | 6097 ft | 219 kts | 64° |
| 2026-04-14 06:48 | 22.42770 | 120.43653 | 6119 ft | 221 kts | 62° |
| 2026-04-14 06:49 | 22.43719 | 120.44901 | 6040 ft | 218 kts | 36° |
| 2026-04-14 06:49 | 22.44979 | 120.45747 | 5903 ft | 208 kts | 28° |
| 2026-04-14 06:49 | 22.46198 | 120.46542 | 5622 ft | 203 kts | 29° |
| 2026-04-14 06:49 | 22.47407 | 120.47337 | 5310 ft | 202 kts | 30° |
| 2026-04-14 06:50 | 22.48596 | 120.48124 | 4992 ft | 200 kts | 30° |
| 2026-04-14 06:50 | 22.49771 | 120.48906 | 4696 ft | 197 kts | 30° |
| 2026-04-14 06:50 | 22.50934 | 120.49681 | 4391 ft | 195 kts | 30° |
| 2026-04-14 06:50 | 22.52082 | 120.50447 | 4107 ft | 194 kts | 30° |
| 2026-04-14 06:51 | 22.53228 | 120.51210 | 3835 ft | 193 kts | 30° |
| 2026-04-14 06:51 | 22.54354 | 120.51962 | 3549 ft | 192 kts | 30° |
| 2026-04-14 06:51 | 22.55491 | 120.52724 | 3279 ft | 192 kts | 30° |
| 2026-04-14 06:51 | 22.56652 | 120.53420 | 2997 ft | 190 kts | 17° |
| 2026-04-14 06:52 | 22.57940 | 120.53357 | 2715 ft | 188 kts | 336° |
| 2026-04-14 06:52 | 22.58885 | 120.52431 | 2548 ft | 186 kts | 298° |
| 2026-04-14 06:52 | 22.59115 | 120.51075 | 2500 ft | 186 kts | 262° |
| 2026-04-14 06:52 | 22.58601 | 120.49791 | 2435 ft | 186 kts | 241° |
| 2026-04-14 06:53 | 22.57943 | 120.48582 | 2230 ft | 185 kts | 242° |
| 2026-04-14 06:53 | 22.57500 | 120.47341 | 2001 ft | 174 kts | 258° |
| 2026-04-14 06:53 | 22.57381 | 120.46088 | 1854 ft | 163 kts | 269° |
| 2026-04-14 06:53 | 22.57403 | 120.44870 | 1651 ft | 161 kts | 272° |
| 2026-04-14 06:54 | 22.57437 | 120.43732 | 1416 ft | 138 kts | 272° |
| 2026-04-14 06:54 | 22.57468 | 120.42719 | 1220 ft | 132 kts | 272° |
| 2026-04-14 06:54 | 22.57498 | 120.41726 | 1066 ft | 132 kts | 271° |
| 2026-04-14 06:54 | 22.57537 | 120.40731 | 900 ft | 130 kts | 272° |
| 2026-04-14 06:55 | 22.57552 | 120.39766 | 723 ft | 128 kts | 271° |
| 2026-04-14 06:55 | 22.57592 | 120.38783 | 575 ft | 131 kts | 273° |
| 2026-04-14 06:55 | 22.57633 | 120.37816 | 380 ft | 131 kts | 272° |
| 2026-04-14 06:55 | 22.57660 | 120.36840 | 177 ft | 129 kts | 271° |
| 2026-04-14 06:56 | 22.57683 | 120.35864 | 62 ft | 130 kts | 271° |
| 2026-04-14 06:56 | 22.57708 | 120.34962 | 43 ft | 101 kts | 272° |
| 2026-04-14 06:56 | 22.57725 | 120.34416 | 45 ft | 44 kts | 272° |
| 2026-04-14 06:56 | 22.57731 | 120.34226 | 44 ft | 17 kts | 272° |
| 2026-04-14 06:57 | 22.57718 | 120.34146 | 42 ft | 10 kts | 227° |
| 2026-04-14 06:57 | 22.57652 | 120.34126 | 44 ft | 9 kts | 182° |
| 2026-04-14 06:57 | 22.57585 | 120.34124 | 44 ft | 11 kts | 181° |
| 2026-04-14 06:57 | 22.57525 | 120.34122 | 44 ft | 5 kts | 181° |
| 2026-04-14 06:58 | 22.57482 | 120.34121 | 44 ft | 7 kts | 181° |
| 2026-04-14 06:58 | 22.57428 | 120.34108 | 44 ft | 9 kts | 221° |
| 2026-04-14 06:58 | 22.57381 | 120.34057 | 44 ft | 11 kts | 200° |
| 2026-04-14 06:58 | 22.57306 | 120.34051 | 44 ft | 10 kts | 181° |
| 2026-04-14 06:59 | 22.57268 | 120.34063 | 44 ft | 6 kts | 131° |
| 2026-04-14 06:59 | 22.57266 | 120.34097 | 44 ft | 3 kts | 77° |
| 2026-04-14 06:59 | 22.57267 | 120.34106 | 44 ft | 2 kts | 90° |
| 2026-04-14 06:59 | 22.57267 | 120.34116 | 44 ft | 1 kts | 91° |
| 2026-04-14 07:00 | 22.57267 | 120.34122 | 44 ft | 0 kts | 91° |